Promitheas — SYIJ — position and weather

sailwx.info

Track history (hours):
 
Tides and Currents Weather Stations Pressure Air Temp Water Temp Dewpoint Dewpoint Depression Visibility Wind Speed Wind Dir Waves Ship Positions

Promitheas

Last reported at 2017-Nov-16 12:40 UTC. Time now 2017-Nov-19 04:57 UTC.
Position N 57°51' E 010°33'.

Length 249 m; draft 12.6 m.

Type: Ship (hazmat cat A). MMSI: 240547000.

Date/timePositionNaut miles runAvg speedWind from/ knotsBaromVisibWave heightAir tempDewpointWater temp
2017-Nov-16 12:40N 57°51' E 010°33'212.4
2017-Nov-16 12:30N 57°51' E 010°37'612.0
2017-Nov-16 11:59N 57°48' E 010°47'611.5
2017-Nov-16 11:29N 57°44' E 010°55'5 9.4
2017-Nov-16 11:00N 57°41' E 011°01'713.5
2017-Nov-16 10:30N 57°37' E 011°11'713.8
2017-Nov-16 10:00N 57°32' E 011°20'713.8
2017-Nov-16 09:30N 57°26' E 011°27'713.8
2017-Nov-16 09:00N 57°20' E 011°32'714.1
2017-Nov-16 08:30N 57°13' E 011°36'713.8
2017-Nov-16 07:58N 57°06' E 011°40'813.9
2017-Nov-16 07:24N 56°59' E 011°45'613.9
2017-Nov-16 06:57N 56°53' E 011°50'9512.2
2017-Nov-15 23:11N 55°21' E 011°02'313.2
2017-Nov-15 22:58N 55°19' E 011°03'612.9
2017-Nov-15 22:30N 55°13' E 011°06'612.5
2017-Nov-15 22:00N 55°08' E 010°59'613.0
2017-Nov-15 21:30N 55°01' E 010°59'612.3
2017-Nov-15 21:00N 54°56' E 010°53'713.1
2017-Nov-15 20:30N 54°50' E 010°50'713.3
2017-Nov-15 20:00N 54°44' E 010°47'611.8
2017-Nov-15 19:30N 54°39' E 010°52'612.9
2017-Nov-15 19:00N 54°36' E 011°02'612.9
2017-Nov-15 18:30N 54°35' E 011°13'713.2
2017-Nov-15 18:00N 54°32' E 011°24'713.1
2017-Nov-15 17:30N 54°29' E 011°34'713.3
2017-Nov-15 17:00N 54°27' E 011°45'613.2
2017-Nov-15 16:30N 54°26' E 011°56'713.2
2017-Nov-15 16:00N 54°26' E 012°07'511.0
2017-Nov-15 15:30N 54°31' E 012°13'611.6
2017-Nov-15 15:00N 54°36' E 012°17'7610.8
2017-Nov-15 07:58N 55°12' E 014°14'612.7
2017-Nov-15 07:29N 55°16' E 014°21'813.0
2017-Nov-15 06:54N 55°22' E 014°29'513.1
2017-Nov-15 06:30N 55°27' E 014°34'812.5
2017-Nov-15 05:52N 55°30' E 014°47'512.6
2017-Nov-15 05:30N 55°32' E 014°54'712.5
2017-Nov-15 04:59N 55°34' E 015°05'612.6
2017-Nov-15 04:30N 55°37' E 015°14'612.5
2017-Nov-15 04:00N 55°39' E 015°25'612.6
2017-Nov-15 03:30N 55°40' E 015°36'612.9
2017-Nov-15 03:00N 55°42' E 015°47'613.0
2017-Nov-15 02:30N 55°44' E 015°58'612.8
2017-Nov-15 02:00N 55°45' E 016°09'613.0
2017-Nov-15 01:30N 55°47' E 016°20'612.9
2017-Nov-15 01:00N 55°48' E 016°31'612.8
2017-Nov-15 00:30N 55°49' E 016°42'712.8
2017-Nov-14 23:56N 55°51' E 016°55'29612.1
2017-Nov-13 23:29N 59°34' E 022°60'713.0
2017-Nov-13 22:55N 59°36' E 023°14'512.9
2017-Nov-13 22:30N 59°38' E 023°24'612.9
2017-Nov-13 22:00N 59°40' E 023°36'  
2017-Nov-11 06:56N 60°28' E 028°22'410.6
2017-Nov-11 06:30N 60°26' E 028°14'4 8.5
2017-Nov-11 06:00N 60°25' E 028°06'611.0
2017-Nov-11 05:30N 60°20' E 027°59'5 9.2
2017-Nov-11 05:00N 60°16' E 027°54'713.1
2017-Nov-11 04:30N 60°11' E 027°46'713.5
2017-Nov-11 04:00N 60°07' E 027°35'713.7
2017-Nov-11 03:30N 60°03' E 027°24'713.7
2017-Nov-11 03:00N 60°00' E 027°12'612.9
2017-Nov-11 02:30N 59°58' E 026°60'713.3
2017-Nov-11 02:00N 59°59' E 026°46'713.2
2017-Nov-11 01:30N 59°59' E 026°33'713.6
2017-Nov-11 01:00N 59°57' E 026°20'3113.7
2017-Nov-10 22:46N 59°49' E 025°21'413.5
2017-Nov-10 22:29N 59°49' E 025°13'713.6
2017-Nov-10 22:01N 59°47' E 025°01'713.6
2017-Nov-10 21:30N 59°46' E 024°47'714.3
2017-Nov-10 21:00N 59°44' E 024°34'713.2
2017-Nov-10 20:30N 59°43' E 024°21'713.5
2017-Nov-10 20:00N 59°41' E 024°08'713.7
2017-Nov-10 19:30N 59°39' E 023°55'713.8
2017-Nov-10 19:00N 59°37' E 023°42'713.7
2017-Nov-10 18:30N 59°34' E 023°29'713.9
2017-Nov-10 18:00N 59°32' E 023°16'713.6
2017-Nov-10 17:30N 59°30' E 023°04'30412.9
2017-Nov-09 17:52N 55°47' E 016°37'514.0
2017-Nov-09 17:30N 55°46' E 016°28'714.0
2017-Nov-09 17:00N 55°44' E 016°16'713.8
2017-Nov-09 16:30N 55°43' E 016°04'713.4
2017-Nov-09 16:01N 55°41' E 015°53'713.9
2017-Nov-09 15:30N 55°40' E 015°41'713.8
2017-Nov-09 15:00N 55°38' E 015°29'713.6
2017-Nov-09 14:30N 55°35' E 015°18'713.7
2017-Nov-09 14:00N 55°32' E 015°07'713.6
2017-Nov-09 13:30N 55°29' E 014°57'713.7
2017-Nov-09 13:00N 55°26' E 014°46'713.8
2017-Nov-09 12:30N 55°22' E 014°36'714.0
2017-Nov-09 12:00N 55°16' E 014°29'714.1
2017-Nov-09 11:31N 55°10' E 014°22'713.9
2017-Nov-09 11:00N 55°05' E 014°15'813.5
2017-Nov-09 10:24N 54°60' E 014°03'4513.6
2017-Nov-09 07:04N 54°45' E 012°49'113.4
2017-Nov-09 06:59N 54°45' E 012°47'613.3
2017-Nov-09 06:30N 54°43' E 012°37'713.3
2017-Nov-09 05:57N 54°39' E 012°26'613.0
2017-Nov-09 05:30N 54°35' E 012°18'611.8
2017-Nov-09 05:00N 54°30' E 012°14'612.9
2017-Nov-09 04:31N 54°25' E 012°07'1114.4
2017-Nov-09 03:45N 54°25' E 011°48'614.0
2017-Nov-09 03:19N 54°27' E 011°38'413.8
2017-Nov-09 03:00N 54°29' E 011°31'713.4
2017-Nov-09 02:30N 54°32' E 011°21'714.1
2017-Nov-09 02:00N 54°35' E 011°10'714.2
2017-Nov-09 01:30N 54°39' E 011°00'713.2
2017-Nov-09 01:00N 54°43' E 010°52'713.6
2017-Nov-09 00:30N 54°50' E 010°51'511.0
2017-Nov-09 00:01N 54°56' E 010°54'611.0
2017-Nov-08 23:30N 55°00' E 010°59'713.2
2017-Nov-08 23:00N 55°07' E 011°02'612.3
2017-Nov-08 22:30N 55°12' E 011°06'3712.7
2017-Nov-08 19:36N 55°48' E 010°49'412.2
2017-Nov-08 19:18N 55°51' E 010°51'713.5
2017-Nov-08 18:48N 55°56' E 010°59'413.3
2017-Nov-08 18:28N 56°00' E 011°03'6311.3
2017-Nov-08 12:53N 56°59' E 011°43'1712.4
2017-Nov-08 11:32N 57°15' E 011°33'012.6
2017-Nov-08 11:31N 57°15' E 011°33'612.8
2017-Nov-08 11:00N 57°21' E 011°29'612.7
2017-Nov-08 10:31N 57°27' E 011°25'612.0
2017-Nov-08 10:01N 57°31' E 011°17'612.9
2017-Nov-08 09:31N 57°36' E 011°08'713.3
2017-Nov-08 09:00N 57°40' E 010°59'713.3
2017-Nov-08 08:30N 57°45' E 010°50'612.3
2017-Nov-08 08:00N 57°48' E 010°40'713.5
2017-Nov-08 07:29N 57°47' E 010°27'40013.3
2017-Nov-07 01:25N 52°36' E 003°09'814.1
2017-Nov-07 00:51N 52°28' E 003°10'514.1
2017-Nov-07 00:30N 52°23' E 003°12'713.8
2017-Nov-06 23:59N 52°17' E 003°18'714.3
2017-Nov-06 23:29N 52°12' E 003°26'914.3
2017-Nov-06 22:51N 52°07' E 003°38'514.9
2017-Nov-06 22:30N 52°05' E 003°46'510.6
2017-Nov-06 22:01N 52°02' E 003°54'713.1
2017-Nov-06 21:30N 51°59' E 004°03'1 2.2
2017-Nov-06 20:54N 51°58' E 004°04'0 0.0
2017-Nov-06 20:30N 51°58' E 004°04'  
Track history (hours):
 
Tides and Currents Weather Stations Pressure Air Temp Water Temp Dewpoint Dewpoint Depression Visibility Wind Speed Wind Dir Waves Ship Positions

Promitheas

Last reported at 2017-Nov-16 12:40 UTC. Time now 2017-Nov-19 04:57 UTC.
Position N 57°51' E 010°33'.

Length 249 m; draft 12.6 m.

Type: Ship (hazmat cat A). MMSI: 240547000.

Date/timePositionNaut miles runAvg speedWind from/ knotsBaromVisibWave heightAir tempDewpointWater temp
2017-Nov-16 12:40N 57°51' E 010°33'212.4
2017-Nov-16 12:30N 57°51' E 010°37'612.0
2017-Nov-16 11:59N 57°48' E 010°47'611.5
2017-Nov-16 11:29N 57°44' E 010°55'5 9.4
2017-Nov-16 11:00N 57°41' E 011°01'713.5
2017-Nov-16 10:30N 57°37' E 011°11'713.8
2017-Nov-16 10:00N 57°32' E 011°20'713.8
2017-Nov-16 09:30N 57°26' E 011°27'713.8
2017-Nov-16 09:00N 57°20' E 011°32'714.1
2017-Nov-16 08:30N 57°13' E 011°36'713.8
2017-Nov-16 07:58N 57°06' E 011°40'813.9
2017-Nov-16 07:24N 56°59' E 011°45'613.9
2017-Nov-16 06:57N 56°53' E 011°50'9512.2
2017-Nov-15 23:11N 55°21' E 011°02'313.2
2017-Nov-15 22:58N 55°19' E 011°03'612.9
2017-Nov-15 22:30N 55°13' E 011°06'612.5
2017-Nov-15 22:00N 55°08' E 010°59'613.0
2017-Nov-15 21:30N 55°01' E 010°59'612.3
2017-Nov-15 21:00N 54°56' E 010°53'713.1
2017-Nov-15 20:30N 54°50' E 010°50'713.3
2017-Nov-15 20:00N 54°44' E 010°47'611.8
2017-Nov-15 19:30N 54°39' E 010°52'612.9
2017-Nov-15 19:00N 54°36' E 011°02'612.9
2017-Nov-15 18:30N 54°35' E 011°13'713.2
2017-Nov-15 18:00N 54°32' E 011°24'713.1
2017-Nov-15 17:30N 54°29' E 011°34'713.3
2017-Nov-15 17:00N 54°27' E 011°45'613.2
2017-Nov-15 16:30N 54°26' E 011°56'713.2
2017-Nov-15 16:00N 54°26' E 012°07'511.0
2017-Nov-15 15:30N 54°31' E 012°13'611.6
2017-Nov-15 15:00N 54°36' E 012°17'7610.8
2017-Nov-15 07:58N 55°12' E 014°14'612.7
2017-Nov-15 07:29N 55°16' E 014°21'813.0
2017-Nov-15 06:54N 55°22' E 014°29'513.1
2017-Nov-15 06:30N 55°27' E 014°34'812.5
2017-Nov-15 05:52N 55°30' E 014°47'512.6
2017-Nov-15 05:30N 55°32' E 014°54'712.5
2017-Nov-15 04:59N 55°34' E 015°05'612.6
2017-Nov-15 04:30N 55°37' E 015°14'612.5
2017-Nov-15 04:00N 55°39' E 015°25'612.6
2017-Nov-15 03:30N 55°40' E 015°36'612.9
2017-Nov-15 03:00N 55°42' E 015°47'613.0
2017-Nov-15 02:30N 55°44' E 015°58'612.8
2017-Nov-15 02:00N 55°45' E 016°09'613.0
2017-Nov-15 01:30N 55°47' E 016°20'612.9
2017-Nov-15 01:00N 55°48' E 016°31'612.8
2017-Nov-15 00:30N 55°49' E 016°42'712.8
2017-Nov-14 23:56N 55°51' E 016°55'29612.1
2017-Nov-13 23:29N 59°34' E 022°60'713.0
2017-Nov-13 22:55N 59°36' E 023°14'512.9
2017-Nov-13 22:30N 59°38' E 023°24'612.9
2017-Nov-13 22:00N 59°40' E 023°36'  
2017-Nov-11 06:56N 60°28' E 028°22'410.6
2017-Nov-11 06:30N 60°26' E 028°14'4 8.5
2017-Nov-11 06:00N 60°25' E 028°06'611.0
2017-Nov-11 05:30N 60°20' E 027°59'5 9.2
2017-Nov-11 05:00N 60°16' E 027°54'713.1
2017-Nov-11 04:30N 60°11' E 027°46'713.5
2017-Nov-11 04:00N 60°07' E 027°35'713.7
2017-Nov-11 03:30N 60°03' E 027°24'713.7
2017-Nov-11 03:00N 60°00' E 027°12'612.9
2017-Nov-11 02:30N 59°58' E 026°60'713.3
2017-Nov-11 02:00N 59°59' E 026°46'713.2
2017-Nov-11 01:30N 59°59' E 026°33'713.6
2017-Nov-11 01:00N 59°57' E 026°20'3113.7
2017-Nov-10 22:46N 59°49' E 025°21'413.5
2017-Nov-10 22:29N 59°49' E 025°13'713.6
2017-Nov-10 22:01N 59°47' E 025°01'713.6
2017-Nov-10 21:30N 59°46' E 024°47'714.3
2017-Nov-10 21:00N 59°44' E 024°34'713.2
2017-Nov-10 20:30N 59°43' E 024°21'713.5
2017-Nov-10 20:00N 59°41' E 024°08'713.7
2017-Nov-10 19:30N 59°39' E 023°55'713.8
2017-Nov-10 19:00N 59°37' E 023°42'713.7
2017-Nov-10 18:30N 59°34' E 023°29'713.9
2017-Nov-10 18:00N 59°32' E 023°16'713.6
2017-Nov-10 17:30N 59°30' E 023°04'30412.9
2017-Nov-09 17:52N 55°47' E 016°37'514.0
2017-Nov-09 17:30N 55°46' E 016°28'714.0
2017-Nov-09 17:00N 55°44' E 016°16'713.8
2017-Nov-09 16:30N 55°43' E 016°04'713.4
2017-Nov-09 16:01N 55°41' E 015°53'713.9
2017-Nov-09 15:30N 55°40' E 015°41'713.8
2017-Nov-09 15:00N 55°38' E 015°29'713.6
2017-Nov-09 14:30N 55°35' E 015°18'713.7
2017-Nov-09 14:00N 55°32' E 015°07'713.6
2017-Nov-09 13:30N 55°29' E 014°57'713.7
2017-Nov-09 13:00N 55°26' E 014°46'713.8
2017-Nov-09 12:30N 55°22' E 014°36'714.0
2017-Nov-09 12:00N 55°16' E 014°29'714.1
2017-Nov-09 11:31N 55°10' E 014°22'713.9
2017-Nov-09 11:00N 55°05' E 014°15'813.5
2017-Nov-09 10:24N 54°60' E 014°03'4513.6
2017-Nov-09 07:04N 54°45' E 012°49'113.4
2017-Nov-09 06:59N 54°45' E 012°47'613.3
2017-Nov-09 06:30N 54°43' E 012°37'713.3
2017-Nov-09 05:57N 54°39' E 012°26'613.0
2017-Nov-09 05:30N 54°35' E 012°18'611.8
2017-Nov-09 05:00N 54°30' E 012°14'612.9
2017-Nov-09 04:31N 54°25' E 012°07'1114.4
2017-Nov-09 03:45N 54°25' E 011°48'614.0
2017-Nov-09 03:19N 54°27' E 011°38'413.8
2017-Nov-09 03:00N 54°29' E 011°31'713.4
2017-Nov-09 02:30N 54°32' E 011°21'714.1
2017-Nov-09 02:00N 54°35' E 011°10'714.2
2017-Nov-09 01:30N 54°39' E 011°00'713.2
2017-Nov-09 01:00N 54°43' E 010°52'713.6
2017-Nov-09 00:30N 54°50' E 010°51'511.0
2017-Nov-09 00:01N 54°56' E 010°54'611.0
2017-Nov-08 23:30N 55°00' E 010°59'713.2
2017-Nov-08 23:00N 55°07' E 011°02'612.3
2017-Nov-08 22:30N 55°12' E 011°06'3712.7
2017-Nov-08 19:36N 55°48' E 010°49'412.2
2017-Nov-08 19:18N 55°51' E 010°51'713.5
2017-Nov-08 18:48N 55°56' E 010°59'413.3
2017-Nov-08 18:28N 56°00' E 011°03'6311.3
2017-Nov-08 12:53N 56°59' E 011°43'1712.4
2017-Nov-08 11:32N 57°15' E 011°33'012.6
2017-Nov-08 11:31N 57°15' E 011°33'612.8
2017-Nov-08 11:00N 57°21' E 011°29'612.7
2017-Nov-08 10:31N 57°27' E 011°25'612.0
2017-Nov-08 10:01N 57°31' E 011°17'612.9
2017-Nov-08 09:31N 57°36' E 011°08'713.3
2017-Nov-08 09:00N 57°40' E 010°59'713.3
2017-Nov-08 08:30N 57°45' E 010°50'612.3
2017-Nov-08 08:00N 57°48' E 010°40'713.5
2017-Nov-08 07:29N 57°47' E 010°27'40013.3
2017-Nov-07 01:25N 52°36' E 003°09'814.1
2017-Nov-07 00:51N 52°28' E 003°10'514.1
2017-Nov-07 00:30N 52°23' E 003°12'713.8
2017-Nov-06 23:59N 52°17' E 003°18'714.3
2017-Nov-06 23:29N 52°12' E 003°26'914.3
2017-Nov-06 22:51N 52°07' E 003°38'514.9
2017-Nov-06 22:30N 52°05' E 003°46'510.6
2017-Nov-06 22:01N 52°02' E 003°54'713.1
2017-Nov-06 21:30N 51°59' E 004°03'1 2.2
2017-Nov-06 20:54N 51°58' E 004°04'0 0.0
2017-Nov-06 20:30N 51°58' E 004°04'  

Dump ship's entire track history